Time;durP1;ratioP1;P1;durP2;ratioP2;P2;SDS_P1;SDS_P2;PMS_P1;PMS_P2;Temp;Humidity;BMP_temperature;BMP_pressure;BME280_temperature;BME280_humidity;BME280_pressure;Samples;Min_cycle;Max_cycle;Signal;HPM_P1;HPM_P2
2022/10/18 00:01:19;;;;;;;23.03;12.93;;;;;;;11.37;100.00;101663.94;5062035;28;20207;-71
2022/10/18 00:03:46;;;;;;;23.77;13.47;;;;;;;11.33;100.00;101657.06;5062341;28;20689;-70
2022/10/18 00:06:12;;;;;;;22.90;13.00;;;;;;;11.29;100.00;101658.00;5062296;28;20225;-71
2022/10/18 00:08:40;;;;;;;19.47;11.77;;;;;;;11.24;100.00;101657.19;5063236;28;20203;-71
2022/10/18 00:11:07;;;;;;;23.67;12.83;;;;;;;11.20;100.00;101663.28;5058021;28;20228;-71
2022/10/18 00:13:33;;;;;;;23.27;12.43;;;;;;;11.17;100.00;101663.34;5062408;28;20198;-70
2022/10/18 00:16:03;;;;;;;22.30;12.47;;;;;;;11.15;100.00;101665.97;5063684;28;20595;-70
2022/10/18 00:18:30;;;;;;;19.93;11.60;;;;;;;11.12;100.00;101668.63;5064193;28;20681;-71
2022/10/18 00:20:59;;;;;;;22.87;13.10;;;;;;;11.10;100.00;101666.91;5064029;28;20222;-71
2022/10/18 00:23:26;;;;;;;20.40;11.97;;;;;;;11.07;100.00;101664.34;5063585;28;20301;-71
2022/10/18 00:26:01;;;;;;;23.00;13.03;;;;;;;11.04;100.00;101672.19;5045642;28;20572;-71
2022/10/18 00:28:27;;;;;;;21.00;12.43;;;;;;;11.03;100.00;101676.56;5060825;28;20205;-71
2022/10/18 00:30:54;;;;;;;23.27;13.00;;;;;;;11.07;100.00;101672.19;5062216;28;20232;-70
2022/10/18 00:33:20;;;;;;;23.30;12.63;;;;;;;11.01;100.00;101675.72;5062654;28;20198;-71
2022/10/18 00:35:46;;;;;;;21.90;12.40;;;;;;;10.97;100.00;101680.09;5062604;28;20226;-71
2022/10/18 00:38:13;;;;;;;22.50;12.33;;;;;;;10.95;100.00;101679.25;5056610;28;20293;-70
2022/10/18 00:40:39;;;;;;;20.37;12.57;;;;;;;10.92;100.00;101679.31;5061121;28;20206;-71
2022/10/18 00:43:11;;;;;;;21.77;12.50;;;;;;;10.91;100.00;101679.31;5058610;28;20793;-71
2022/10/18 00:45:38;;;;;;;21.40;12.30;;;;;;;10.88;100.00;101676.72;5059740;28;20237;-71
2022/10/18 00:48:04;;;;;;;20.53;12.93;;;;;;;10.86;100.00;101673.28;5060593;28;20213;-69
2022/10/18 00:50:34;;;;;;;22.30;13.23;;;;;;;10.83;100.00;101675.91;5061625;28;20575;-71
2022/10/18 00:53:04;;;;;;;20.33;12.00;;;;;;;10.78;100.00;101684.66;5061760;28;20199;-70
2022/10/18 00:55:33;;;;;;;21.07;12.67;;;;;;;10.75;100.00;101682.06;5061889;28;20642;-71
2022/10/18 00:58:01;;;;;;;22.60;12.53;;;;;;;10.73;100.00;101676.00;5061144;28;20199;-70
2022/10/18 01:00:28;;;;;;;18.40;11.47;;;;;;;10.71;100.00;101679.50;5062482;28;20197;-71
2022/10/18 01:02:55;;;;;;;19.07;11.43;;;;;;;10.67;100.00;101680.41;5061573;28;20226;-71
2022/10/18 01:05:22;;;;;;;21.47;12.23;;;;;;;10.65;100.00;101672.59;5062822;28;20226;-71
2022/10/18 01:08:23;;;;;;;19.17;11.30;;;;;;;10.62;100.00;101677.84;5061437;28;20194;-70
2022/10/18 01:10:59;;;;;;;19.90;11.63;;;;;;;10.59;100.00;101683.97;5060543;28;20199;-71
2022/10/18 01:13:37;;;;;;;20.17;11.77;;;;;;;10.57;100.00;101688.34;5061381;28;20409;-71
2022/10/18 01:16:14;;;;;;;18.23;11.37;;;;;;;10.55;100.00;101686.59;5061576;28;20275;-71
2022/10/18 01:18:48;;;;;;;23.07;12.33;;;;;;;10.54;100.00;101693.56;5061388;28;20205;-70
2022/10/18 01:21:24;;;;;;;20.23;11.67;;;;;;;10.52;100.00;101687.50;5060537;28;20202;-70
2022/10/18 01:24:21;;;;;;;20.07;11.63;;;;;;;10.50;100.00;101678.84;5060406;28;20197;-71
2022/10/18 01:27:05;;;;;;;21.03;12.37;;;;;;;10.47;100.00;101683.22;5058670;28;20227;-70
2022/10/18 01:29:42;;;;;;;17.37;10.80;;;;;;;10.44;100.00;101684.09;5060731;28;20779;-71
2022/10/18 01:32:13;;;;;;;22.57;11.87;;;;;;;10.41;100.00;101686.72;5061664;28;20604;-71
2022/10/18 01:34:42;;;;;;;19.33;10.80;;;;;;;10.37;100.00;101678.06;5061923;28;20630;-71
2022/10/18 01:37:13;;;;;;;19.23;11.27;;;;;;;10.34;100.00;101688.53;5057927;28;20221;-71
2022/10/18 01:39:43;;;;;;;18.77;12.53;;;;;;;10.30;100.00;101683.31;5062452;28;20583;-69
2022/10/18 01:42:12;;;;;;;21.37;12.83;;;;;;;10.31;100.00;101682.47;5058004;28;20233;-71
2022/10/18 01:44:40;;;;;;;20.70;11.40;;;;;;;10.29;100.00;101684.19;5060568;28;20293;-70
2022/10/18 01:47:10;;;;;;;22.67;13.03;;;;;;;10.27;100.00;101686.78;5057756;28;20291;-71
2022/10/18 01:49:37;;;;;;;19.03;11.23;;;;;;;10.26;100.00;101685.09;5062923;28;20202;-71
2022/10/18 01:52:03;;;;;;;22.47;11.30;;;;;;;10.24;100.00;101674.66;5061728;28;20202;-71
2022/10/18 01:54:34;;;;;;;19.83;11.50;;;;;;;10.21;100.00;101673.81;5061810;28;20210;-71
2022/10/18 01:57:06;;;;;;;19.37;11.83;;;;;;;10.20;100.00;101672.09;5061577;28;20703;-71
2022/10/18 01:59:45;;;;;;;17.80;10.93;;;;;;;10.19;100.00;101680.81;5044464;28;20205;-71
2022/10/18 02:02:22;;;;;;;17.97;10.70;;;;;;;10.19;100.00;101688.63;5059216;28;20411;-71
2022/10/18 02:04:54;;;;;;;18.93;11.67;;;;;;;10.18;100.00;101673.84;5058837;28;20196;-70
2022/10/18 02:07:28;;;;;;;18.17;11.40;;;;;;;10.17;100.00;101677.34;5060586;28;20211;-71
2022/10/18 02:10:02;;;;;;;18.43;10.97;;;;;;;10.14;100.00;101683.44;5060801;28;20210;-71
2022/10/18 02:12:32;;;;;;;21.20;11.57;;;;;;;10.14;100.00;101683.44;5062250;28;20207;-71
2022/10/18 02:15:00;;;;;;;16.23;11.20;;;;;;;10.11;100.00;101678.22;5059872;28;20549;-71
2022/10/18 02:17:30;;;;;;;21.53;11.77;;;;;;;10.10;100.00;101667.84;5061572;28;20266;-70
2022/10/18 02:19:57;;;;;;;18.63;10.63;;;;;;;10.08;100.00;101677.41;5060912;28;20205;-71
2022/10/18 02:22:27;;;;;;;18.63;11.50;;;;;;;10.08;100.00;101674.78;5058875;28;20213;-71
2022/10/18 02:24:58;;;;;;;19.40;11.53;;;;;;;10.07;100.00;101678.28;5063650;28;20216;-70
2022/10/18 02:27:25;;;;;;;21.80;11.90;;;;;;;10.07;100.00;101681.75;5061183;28;20190;-70
2022/10/18 02:29:52;;;;;;;20.63;12.10;;;;;;;10.06;100.00;101677.44;5061447;28;20205;-71
2022/10/18 02:32:26;;;;;;;17.40;9.87;;;;;;;10.04;100.00;101671.34;5061328;28;20194;-70
2022/10/18 02:34:59;;;;;;;19.40;11.90;;;;;;;10.04;100.00;101677.44;5061729;28;20200;-71
2022/10/18 02:37:30;;;;;;;21.93;11.23;;;;;;;10.03;100.00;101682.66;5057853;28;20206;-71
2022/10/18 02:39:57;;;;;;;20.60;12.37;;;;;;;10.05;100.00;101679.16;5057136;28;20586;-70
2022/10/18 02:42:23;;;;;;;20.43;11.57;;;;;;;10.05;100.00;101686.13;5059628;28;20221;-71
2022/10/18 02:44:49;;;;;;;19.63;11.63;;;;;;;10.08;100.00;101688.69;5060147;28;20198;-70
2022/10/18 02:47:16;;;;;;;21.20;12.13;;;;;;;10.08;100.00;101686.09;5062988;22;20237;-70
2022/10/18 02:49:42;;;;;;;22.63;11.77;;;;;;;10.08;100.00;101691.31;5042444;28;20280;-70
2022/10/18 02:52:10;;;;;;;23.63;11.97;;;;;;;10.09;100.00;101690.41;5047530;28;20193;-69
2022/10/18 02:54:36;;;;;;;21.37;11.97;;;;;;;10.09;100.00;101687.81;5048293;28;20590;-70
2022/10/18 02:57:02;;;;;;;20.77;11.47;;;;;;;10.12;100.00;101689.53;5038294;28;20232;-70
2022/10/18 02:59:30;;;;;;;20.10;11.73;;;;;;;10.13;100.00;101694.75;5037792;28;20218;-70
2022/10/18 03:01:56;;;;;;;22.57;12.37;;;;;;;10.17;100.00;101706.88;5040119;28;20223;-70
2022/10/18 03:04:22;;;;;;;20.13;11.43;;;;;;;10.21;100.00;101713.78;5039315;28;20607;-70
2022/10/18 03:06:49;;;;;;;20.20;12.03;;;;;;;10.25;100.00;101709.41;5022081;28;20220;-69
2022/10/18 03:09:16;;;;;;;18.20;10.93;;;;;;;10.31;100.00;101714.63;5038185;28;20202;-69
2022/10/18 03:11:43;;;;;;;21.77;12.27;;;;;;;10.35;100.00;101720.69;5021042;28;20347;-70
2022/10/18 03:14:09;;;;;;;17.90;10.57;;;;;;;10.42;100.00;101722.34;5040242;28;20199;-69
2022/10/18 03:16:35;;;;;;;22.63;11.83;;;;;;;10.48;100.00;101718.81;5037721;28;20313;-70
2022/10/18 03:19:02;;;;;;;22.07;13.03;;;;;;;10.51;100.00;101724.88;5043100;28;20921;-71
2022/10/18 03:21:28;;;;;;;22.70;12.30;;;;;;;10.56;100.00;101719.63;5044248;28;20519;-70
2022/10/18 03:23:54;;;;;;;20.00;11.90;;;;;;;10.64;100.00;101714.34;5042788;28;20221;-70
2022/10/18 03:26:22;;;;;;;21.03;12.37;;;;;;;10.67;100.00;101717.78;5039463;28;20710;-70
2022/10/18 03:28:49;;;;;;;19.63;11.57;;;;;;;10.73;100.00;101719.47;5041131;28;20685;-70
2022/10/18 03:31:15;;;;;;;21.47;12.27;;;;;;;10.78;100.00;101717.69;5041148;28;21067;-70
2022/10/18 03:33:42;;;;;;;19.97;12.13;;;;;;;10.84;100.00;101724.59;5042630;28;20206;-70
2022/10/18 03:36:08;;;;;;;23.07;12.50;;;;;;;10.88;100.00;101721.09;5041695;28;20222;-69
2022/10/18 03:38:34;;;;;;;22.30;12.30;;;;;;;10.94;100.00;101715.78;5043614;28;20210;-69
2022/10/18 03:41:03;;;;;;;21.87;12.53;;;;;;;10.99;100.00;101722.72;5040785;28;20206;-70
2022/10/18 03:43:31;;;;;;;23.00;12.63;;;;;;;11.04;100.00;101716.56;5042607;28;20226;-70
2022/10/18 03:45:57;;;;;;;17.00;11.33;;;;;;;11.08;100.00;101718.25;5038748;28;20222;-70
2022/10/18 03:48:24;;;;;;;23.63;13.23;;;;;;;11.12;100.00;101719.97;5021753;28;20207;-69
2022/10/18 03:50:50;;;;;;;19.40;11.93;;;;;;;11.18;100.00;101725.97;5041697;28;20772;-71
2022/10/18 03:53:16;;;;;;;25.13;13.60;;;;;;;11.24;100.00;101729.38;5043287;28;20615;-71
2022/10/18 03:55:43;;;;;;;20.17;12.30;;;;;;;11.31;100.00;101736.25;5041137;28;20230;-69
2022/10/18 03:58:09;;;;;;;19.10;12.23;;;;;;;11.36;100.00;101732.75;5040584;28;20195;-70
2022/10/18 04:00:37;;;;;;;19.80;11.47;;;;;;;11.42;100.00;101731.81;5023579;28;20195;-69
2022/10/18 04:03:03;;;;;;;22.70;12.57;;;;;;;11.46;100.00;101730.00;5041347;28;20211;-70
2022/10/18 04:05:30;;;;;;;20.97;11.87;;;;;;;11.53;100.00;101731.66;5020724;28;20207;-70
2022/10/18 04:07:57;;;;;;;21.23;12.70;;;;;;;11.56;100.00;101737.72;5041500;28;20199;-70
2022/10/18 04:10:23;;;;;;;20.40;11.70;;;;;;;11.61;100.00;101734.16;5039205;28;20708;-70
2022/10/18 04:12:50;;;;;;;20.17;12.30;;;;;;;11.64;100.00;101734.13;5031802;28;20218;-70
2022/10/18 04:15:16;;;;;;;21.90;11.80;;;;;;;11.67;100.00;101729.72;5018204;28;20574;-69
2022/10/18 04:17:44;;;;;;;22.17;12.40;;;;;;;11.72;100.00;101732.28;5034349;28;20694;-71
2022/10/18 04:20:11;;;;;;;19.03;11.47;;;;;;;11.75;100.00;101727.03;5032900;28;20205;-70
2022/10/18 04:22:37;;;;;;;17.33;11.13;;;;;;;11.79;100.00;101730.47;5036912;28;20224;-71
2022/10/18 04:25:05;;;;;;;19.47;11.17;;;;;;;11.81;100.00;101726.09;5038478;28;20204;-70
2022/10/18 04:27:31;;;;;;;19.00;11.43;;;;;;;11.84;100.00;101724.28;5034808;28;20248;-69
2022/10/18 04:29:57;;;;;;;19.47;12.17;;;;;;;11.86;100.00;101719.91;5019282;28;20556;-70
2022/10/18 04:32:25;;;;;;;23.70;12.73;;;;;;;11.91;100.00;101718.13;5033304;28;20553;-70
2022/10/18 04:34:53;;;;;;;17.23;11.57;;;;;;;11.96;100.00;101722.41;5036267;28;20617;-70
2022/10/18 04:37:19;;;;;;;20.00;11.70;;;;;;;11.99;100.00;101711.91;5032557;28;20736;-70
2022/10/18 04:39:47;;;;;;;19.57;12.40;;;;;;;12.01;100.00;101723.22;5033779;28;20197;-69
2022/10/18 04:42:14;;;;;;;20.23;11.03;;;;;;;12.02;100.00;101714.50;5036408;28;20202;-70
2022/10/18 04:44:40;;;;;;;22.37;12.23;;;;;;;12.05;100.00;101717.06;5036673;28;20202;-70
2022/10/18 04:47:07;;;;;;;18.90;11.80;;;;;;;12.08;100.00;101723.13;5032248;28;20241;-70
2022/10/18 04:49:33;;;;;;;20.17;12.10;;;;;;;12.10;100.00;101713.50;5036346;28;20217;-70
2022/10/18 04:52:01;;;;;;;21.50;12.17;;;;;;;12.13;100.00;101716.03;5037367;28;20729;-70
2022/10/18 04:54:29;;;;;;;19.87;12.57;;;;;;;12.15;100.00;101718.63;5037937;28;20644;-70
2022/10/18 04:56:55;;;;;;;21.03;12.17;;;;;;;12.18;100.00;101708.13;5035302;28;20230;-71
2022/10/18 04:59:22;;;;;;;19.67;12.47;;;;;;;12.21;100.00;101702.00;5037314;28;20203;-70
2022/10/18 05:01:48;;;;;;;21.90;12.37;;;;;;;12.22;100.00;101707.19;5036826;28;20431;-71
2022/10/18 05:04:14;;;;;;;22.83;12.93;;;;;;;12.26;100.00;101701.03;5038749;28;20220;-70
2022/10/18 05:06:41;;;;;;;21.97;12.60;;;;;;;12.26;100.00;101703.66;5034415;28;20332;-69
2022/10/18 05:09:09;;;;;;;19.67;12.90;;;;;;;12.29;100.00;101700.13;5038547;28;20210;-69
2022/10/18 05:11:35;;;;;;;24.93;13.37;;;;;;;12.31;100.00;101706.19;5035559;28;20201;-69
2022/10/18 05:14:02;;;;;;;21.17;12.87;;;;;;;12.32;100.00;101700.94;5029354;28;20205;-69
2022/10/18 05:16:28;;;;;;;19.60;12.13;;;;;;;12.34;100.00;101698.28;5032852;28;20224;-70
2022/10/18 05:18:54;;;;;;;23.13;12.57;;;;;;;12.36;100.00;101703.50;5036364;28;20209;-70
2022/10/18 05:21:21;;;;;;;21.53;12.30;;;;;;;12.37;100.00;101703.47;5037147;28;20203;-70
2022/10/18 05:23:47;;;;;;;21.50;11.53;;;;;;;12.39;100.00;101703.47;5035507;28;20219;-70
2022/10/18 05:26:15;;;;;;;17.20;11.80;;;;;;;12.40;100.00;101705.16;5032873;28;20250;-70
2022/10/18 05:28:41;;;;;;;20.10;11.13;;;;;;;12.40;100.00;101707.78;5038410;28;20206;-70
2022/10/18 05:31:10;;;;;;;18.33;10.70;;;;;;;12.41;100.00;101710.38;5039506;28;20204;-70
2022/10/18 05:33:36;;;;;;;18.47;11.00;;;;;;;12.42;100.00;101704.28;5036814;28;20258;-69
2022/10/18 05:36:03;;;;;;;21.37;11.43;;;;;;;12.44;100.00;101697.25;5036355;28;20217;-70
2022/10/18 05:38:30;;;;;;;19.20;10.83;;;;;;;12.47;100.00;101693.72;5038539;28;20601;-71
2022/10/18 05:40:56;;;;;;;17.47;10.80;;;;;;;12.48;100.00;101706.78;5041630;28;20189;-69
2022/10/18 05:43:27;;;;;;;15.77;9.90;;;;;;;12.48;100.00;101705.91;5035717;28;20217;-70
2022/10/18 05:45:53;;;;;;;16.93;10.23;;;;;;;12.49;100.00;101708.50;5037659;28;20245;-70
2022/10/18 05:48:20;;;;;;;16.87;10.07;;;;;;;12.50;100.00;101710.25;5018199;28;20209;-70
2022/10/18 05:50:46;;;;;;;15.63;10.57;;;;;;;12.51;100.00;101703.25;5039489;28;20263;-70
2022/10/18 05:53:12;;;;;;;19.03;10.60;;;;;;;12.52;100.00;101712.81;5039472;28;20187;-70
2022/10/18 05:55:39;;;;;;;16.43;9.83;;;;;;;12.53;100.00;101708.47;5040629;28;20207;-71
2022/10/18 05:58:05;;;;;;;15.03;9.97;;;;;;;12.54;100.00;101716.28;5037607;28;20202;-70
2022/10/18 06:00:33;;;;;;;15.93;10.27;;;;;;;12.54;100.00;101713.69;5037722;28;20801;-70
2022/10/18 06:02:59;;;;;;;16.90;10.13;;;;;;;12.57;100.00;101712.75;5038523;28;20645;-70
2022/10/18 06:05:26;;;;;;;15.77;9.80;;;;;;;12.59;100.00;101710.97;5041346;28;20678;-70
2022/10/18 06:07:52;;;;;;;16.43;10.07;;;;;;;12.62;100.00;101711.78;5036499;28;20690;-70
2022/10/18 06:10:18;;;;;;;17.50;10.63;;;;;;;12.64;100.00;101709.13;5043189;28;20286;-69
2022/10/18 06:12:45;;;;;;;16.30;9.53;;;;;;;12.67;100.00;101711.69;5038522;28;20678;-70
2022/10/18 06:15:11;;;;;;;16.40;10.30;;;;;;;12.68;100.00;101722.16;5041693;28;20703;-70
2022/10/18 06:17:39;;;;;;;15.70;9.57;;;;;;;12.67;100.00;101717.78;5041797;28;20520;-71
2022/10/18 06:20:07;;;;;;;15.67;10.10;;;;;;;12.69;100.00;101717.75;5043173;28;20212;-70
2022/10/18 06:22:33;;;;;;;16.63;11.27;;;;;;;12.71;100.00;101715.13;5031299;28;20202;-70
2022/10/18 06:24:59;;;;;;;16.90;10.43;;;;;;;12.72;100.00;101715.09;5039528;28;20208;-70
2022/10/18 06:27:26;;;;;;;20.30;10.97;;;;;;;12.74;100.00;101712.47;5040890;28;20221;-70
2022/10/18 06:29:52;;;;;;;15.70;10.60;;;;;;;12.76;100.00;101705.44;5039934;28;20207;-69
2022/10/18 06:32:19;;;;;;;16.23;10.83;;;;;;;12.76;100.00;101706.28;5042243;28;20198;-70
2022/10/18 06:34:48;;;;;;;17.13;10.00;;;;;;;12.79;100.00;101708.88;5037358;28;20269;-70
2022/10/18 06:37:14;;;;;;;15.83;9.80;;;;;;;12.83;100.00;101710.53;5035223;28;20587;-70
2022/10/18 06:39:40;;;;;;;19.43;10.83;;;;;;;12.84;100.00;101708.75;5038295;28;20253;-70
2022/10/18 06:42:07;;;;;;;16.53;9.87;;;;;;;12.86;100.00;101715.72;5038808;28;20645;-70
2022/10/18 06:44:33;;;;;;;17.43;10.20;;;;;;;12.88;100.00;101716.53;5040029;28;20280;-70
2022/10/18 06:47:00;;;;;;;13.57;9.37;;;;;;;12.90;100.00;101711.28;5041490;28;20583;-71
2022/10/18 06:49:27;;;;;;;16.13;9.90;;;;;;;12.91;100.00;101713.03;5039953;28;20202;-71
2022/10/18 06:51:55;;;;;;;16.97;10.27;;;;;;;12.93;100.00;101711.22;5023638;28;20213;-70
2022/10/18 06:54:22;;;;;;;13.30;9.13;;;;;;;12.95;100.00;101713.81;5045294;28;20206;-70
2022/10/18 06:56:48;;;;;;;18.30;9.37;;;;;;;12.97;100.00;101718.13;5040878;28;20238;-71
2022/10/18 06:59:14;;;;;;;15.87;10.27;;;;;;;12.99;100.00;101715.47;5027528;28;20209;-71
2022/10/18 07:01:42;;;;;;;17.40;10.60;;;;;;;13.01;100.00;101714.53;5041970;28;20210;-70
2022/10/18 07:04:08;;;;;;;15.50;9.53;;;;;;;13.03;100.00;101714.53;5043756;28;20623;-71
2022/10/18 07:06:35;;;;;;;15.43;9.53;;;;;;;13.06;100.00;101717.09;5042779;28;20226;-70
2022/10/18 07:09:03;;;;;;;19.17;10.40;;;;;;;13.07;100.00;101724.91;5043867;28;20281;-70
2022/10/18 07:11:29;;;;;;;14.47;10.20;;;;;;;13.10;100.00;101738.84;5042143;28;20904;-70
2022/10/18 07:14:01;;;;;;;18.47;10.87;;;;;;;13.11;100.00;101740.56;5041525;28;20828;-70
2022/10/18 07:16:29;;;;;;;17.27;10.27;;;;;;;13.12;100.00;101740.56;5043103;28;20223;-71
2022/10/18 07:18:55;;;;;;;16.07;9.93;;;;;;;13.14;100.00;101735.25;5040317;28;20276;-70
2022/10/18 07:21:23;;;;;;;14.63;9.50;;;;;;;13.17;100.00;101735.22;5044150;28;20206;-70
2022/10/18 07:23:50;;;;;;;15.90;9.40;;;;;;;13.20;100.00;101725.53;5040264;28;20769;-71
2022/10/18 07:26:21;;;;;;;16.07;9.27;;;;;;;13.24;100.00;101724.59;5042027;28;20624;-70
2022/10/18 07:28:51;;;;;;;15.23;9.30;;;;;;;13.31;100.00;101721.84;5044547;28;20207;-69
2022/10/18 07:31:17;;;;;;;17.13;9.90;;;;;;;13.36;100.00;101720.88;5043502;28;20286;-70
2022/10/18 07:33:44;;;;;;;18.37;10.20;;;;;;;13.39;100.00;101719.97;5041282;28;20253;-71
2022/10/18 07:36:11;;;;;;;21.30;10.90;;;;;;;13.44;100.00;101724.22;5041727;28;20215;-70
2022/10/18 07:38:38;;;;;;;18.43;10.30;;;;;;;13.47;100.00;101707.56;5040416;28;20210;-71
2022/10/18 07:41:06;;;;;;;48.63;21.50;;;;;;;13.50;100.00;101707.50;5041976;28;20556;-70
2022/10/18 07:43:35;;;;;;;81.07;32.87;;;;;;;13.52;100.00;101699.63;5037705;28;20237;-69
2022/10/18 07:46:03;;;;;;;40.87;20.07;;;;;;;13.53;100.00;101703.97;5041491;28;20243;-71
2022/10/18 07:48:29;;;;;;;37.50;19.50;;;;;;;13.55;100.00;101704.81;5042290;28;20667;-70
2022/10/18 07:50:59;;;;;;;22.60;12.90;;;;;;;13.56;100.00;101707.41;5022562;28;20242;-70
2022/10/18 07:53:25;;;;;;;18.37;11.53;;;;;;;13.56;100.00;101704.78;5037889;28;20245;-69
2022/10/18 07:55:52;;;;;;;18.43;10.53;;;;;;;13.57;100.00;101706.47;5039189;28;20233;-70
2022/10/18 07:58:18;;;;;;;16.57;10.13;;;;;;;13.61;100.00;101708.16;5044428;28;20195;-70
2022/10/18 08:00:46;;;;;;;19.27;11.33;;;;;;;13.63;100.00;101702.84;5039022;28;20203;-70
2022/10/18 08:03:12;;;;;;;16.50;10.20;;;;;;;13.64;100.00;101707.22;5016215;28;20704;-70
2022/10/18 08:05:38;;;;;;;16.57;10.53;;;;;;;13.66;100.00;101694.09;5041767;28;20218;-69
2022/10/18 08:08:05;;;;;;;16.53;10.73;;;;;;;13.67;100.00;101694.06;5042863;28;20622;-69
2022/10/18 08:10:32;;;;;;;17.53;10.30;;;;;;;13.70;100.00;101682.63;5035707;28;20785;-69
2022/10/18 08:12:59;;;;;;;15.53;10.50;;;;;;;13.71;100.00;101676.50;5040302;28;20217;-70
2022/10/18 08:15:25;;;;;;;17.03;11.13;;;;;;;13.73;100.00;101672.94;5040010;28;20199;-70
2022/10/18 08:17:53;;;;;;;15.70;10.13;;;;;;;13.75;100.00;101679.00;5044361;28;20199;-69
2022/10/18 08:20:19;;;;;;;19.03;11.53;;;;;;;13.77;100.00;101679.84;5042910;28;20198;-70
2022/10/18 08:22:45;;;;;;;19.63;9.97;;;;;;;13.78;100.00;101678.94;5044439;28;20213;-70
2022/10/18 08:25:12;;;;;;;18.10;10.80;;;;;;;13.78;100.00;101678.94;5039154;28;20222;-70
2022/10/18 08:27:38;;;;;;;16.67;10.93;;;;;;;13.79;100.00;101675.44;5040218;28;20295;-70
2022/10/18 08:30:05;;;;;;;17.53;10.17;;;;;;;13.79;100.00;101675.44;5039903;28;20210;-70
2022/10/18 08:32:31;;;;;;;16.23;10.57;;;;;;;13.79;100.00;101675.44;5039752;28;20199;-70
2022/10/18 08:34:59;;;;;;;17.40;10.87;;;;;;;13.78;100.00;101660.59;5039961;28;20209;-70
2022/10/18 08:37:25;;;;;;;16.97;10.33;;;;;;;13.80;100.00;101668.41;5042162;28;20223;-70
2022/10/18 08:39:52;;;;;;;19.07;11.27;;;;;;;13.79;100.00;101662.31;5040355;28;20203;-70
2022/10/18 08:42:47;;;;;;;17.37;10.80;;;;;;;13.80;100.00;101658.78;5018619;28;20254;-70
2022/10/18 08:45:13;;;;;;;18.13;10.03;;;;;;;13.80;100.00;101656.16;5040458;28;20722;-70
2022/10/18 08:47:43;;;;;;;18.33;10.70;;;;;;;13.81;100.00;101651.81;5043283;28;20231;-71
2022/10/18 08:50:16;;;;;;;16.30;10.20;;;;;;;13.81;100.00;101652.66;5038264;28;20195;-71
2022/10/18 08:52:49;;;;;;;17.17;10.27;;;;;;;13.83;100.00;101653.47;5038421;28;20207;-71
2022/10/18 08:55:22;;;;;;;16.97;9.90;;;;;;;13.85;100.00;101656.06;5035328;28;20198;-71
2022/10/18 08:57:50;;;;;;;17.37;10.00;;;;;;;13.87;100.00;101650.81;5042687;28;20203;-71
2022/10/18 09:00:19;;;;;;;14.73;10.13;;;;;;;13.87;100.00;101648.19;5039381;28;20663;-71
2022/10/18 09:03:02;;;;;;;19.23;11.30;;;;;;;13.87;100.00;101656.91;5042707;28;20209;-71
2022/10/18 09:05:42;;;;;;;16.37;10.33;;;;;;;13.86;100.00;101663.06;5041277;28;20214;-71
2022/10/18 09:08:27;;;;;;;15.33;10.77;;;;;;;13.86;100.00;101660.44;5041949;28;20232;-71
2022/10/18 09:11:04;;;;;;;20.00;11.40;;;;;;;13.86;100.00;101665.69;5040358;28;20195;-71
2022/10/18 09:13:51;;;;;;;17.40;10.83;;;;;;;13.87;100.00;101653.41;5017725;28;20233;-71
2022/10/18 09:16:26;;;;;;;16.33;10.53;;;;;;;13.88;100.00;101656.00;5037525;28;20218;-71
2022/10/18 09:18:58;;;;;;;15.40;10.43;;;;;;;13.87;100.00;101670.00;5040438;28;20207;-71
2022/10/18 09:21:37;;;;;;;16.43;10.60;;;;;;;13.86;100.00;101668.28;5037447;28;20214;-71
2022/10/18 09:24:10;;;;;;;16.10;10.80;;;;;;;13.86;100.00;101689.25;5041718;28;20672;-71
2022/10/18 09:26:43;;;;;;;17.37;11.77;;;;;;;13.85;100.00;101699.78;5038618;28;20227;-71
2022/10/18 09:29:26;;;;;;;14.87;10.20;;;;;;;13.82;100.00;101703.31;5037928;28;20195;-71
2022/10/18 09:32:02;;;;;;;18.13;9.97;;;;;;;13.83;100.00;101681.47;5038209;28;20195;-71
2022/10/18 09:34:36;;;;;;;14.80;9.73;;;;;;;13.84;100.00;101675.31;5039804;28;20207;-71
2022/10/18 09:37:04;;;;;;;15.73;9.90;;;;;;;13.85;100.00;101682.28;5032618;28;20230;-71
2022/10/18 09:39:35;;;;;;;17.77;10.40;;;;;;;13.81;100.00;101686.75;5036613;28;20202;-71
2022/10/18 09:42:05;;;;;;;18.60;10.30;;;;;;;13.82;100.00;101692.84;5038506;28;20729;-71
2022/10/18 09:44:36;;;;;;;16.57;10.37;;;;;;;13.80;100.00;101681.53;5032938;28;20501;-71
2022/10/18 09:47:07;;;;;;;17.40;10.47;;;;;;;13.81;100.00;101675.41;5037453;28;20227;-71
2022/10/18 09:49:40;;;;;;;19.77;11.03;;;;;;;13.81;100.00;101684.13;5041984;28;20588;-71
2022/10/18 09:52:13;;;;;;;15.83;10.23;;;;;;;13.81;100.00;101694.59;5039911;28;20382;-71
2022/10/18 09:54:45;;;;;;;16.83;9.93;;;;;;;13.80;100.00;101695.47;5041393;28;20272;-71
2022/10/18 09:57:18;;;;;;;15.20;9.57;;;;;;;13.81;100.00;101689.34;5036450;28;20222;-71
2022/10/18 09:59:46;;;;;;;17.30;9.70;;;;;;;13.82;100.00;101683.22;5030009;28;20211;-71
2022/10/18 10:02:15;;;;;;;14.97;9.37;;;;;;;13.82;100.00;101667.50;5038425;28;20635;-71
2022/10/18 10:04:41;;;;;;;14.77;9.23;;;;;;;13.84;100.00;101680.56;5042730;28;20223;-71
2022/10/18 10:07:13;;;;;;;12.17;8.50;;;;;;;13.84;100.00;101677.94;5041210;28;20233;-71
2022/10/18 10:09:43;;;;;;;11.40;6.93;;;;;;;13.83;100.00;101677.06;5042501;28;20202;-71
2022/10/18 10:12:25;;;;;;;13.13;8.00;;;;;;;13.85;100.00;101677.03;5041408;28;20681;-71
2022/10/18 10:14:52;;;;;;;8.70;6.30;;;;;;;13.87;100.00;101675.25;5036398;28;20663;-71
2022/10/18 10:17:23;;;;;;;8.97;5.83;;;;;;;13.89;100.00;101686.56;5041210;28;20223;-71
2022/10/18 10:19:57;;;;;;;7.87;5.30;;;;;;;13.93;100.00;101695.19;5039908;28;20222;-71
2022/10/18 10:22:32;;;;;;;6.27;4.80;;;;;;;13.95;100.00;101694.28;5037030;28;20218;-71
2022/10/18 10:24:59;;;;;;;6.43;4.20;;;;;;;13.98;100.00;101678.50;5040568;28;20214;-71
2022/10/18 10:27:31;;;;;;;5.90;4.20;;;;;;;13.98;100.00;101682.84;5027503;28;20623;-71
2022/10/18 10:29:59;;;;;;;4.80;3.50;;;;;;;13.99;100.00;101689.84;5046224;28;20203;-71
2022/10/18 10:32:29;;;;;;;5.57;3.73;;;;;;;13.99;100.00;101692.47;5025152;28;20212;-72
2022/10/18 10:34:56;;;;;;;4.43;3.30;;;;;;;13.95;100.00;101686.41;5043420;28;20191;-73
2022/10/18 10:37:27;;;;;;;3.17;2.73;;;;;;;13.92;100.00;101678.63;5042092;28;20222;-72
2022/10/18 10:40:13;;;;;;;5.10;2.70;;;;;;;13.90;100.00;101696.16;5047454;28;20214;-73
2022/10/18 10:42:54;;;;;;;3.60;2.70;;;;;;;13.88;100.00;101694.44;5045460;28;20205;-73
2022/10/18 10:45:22;;;;;;;3.43;2.73;;;;;;;13.85;100.00;101707.66;5043889;28;20623;-72
2022/10/18 10:47:49;;;;;;;2.90;2.60;;;;;;;13.80;100.00;101699.88;5042764;28;20598;-72
2022/10/18 10:50:24;;;;;;;2.60;2.20;;;;;;;13.76;100.00;101691.22;5044338;28;20202;-72
2022/10/18 10:52:53;;;;;;;2.13;1.93;;;;;;;13.76;100.00;101680.72;5040798;28;20210;-73
2022/10/18 10:55:23;;;;;;;4.17;2.40;;;;;;;13.74;100.00;101677.28;5042025;28;20187;-72
2022/10/18 10:57:51;;;;;;;2.23;2.03;;;;;;;13.76;100.00;101691.22;5043250;28;20209;-72
2022/10/18 11:00:40;;;;;;;3.60;2.80;;;;;;;13.77;100.00;101702.56;5025377;28;20204;-72
2022/10/18 11:03:12;;;;;;;3.77;2.70;;;;;;;13.76;100.00;101713.97;5040804;28;20207;-72
2022/10/18 11:05:45;;;;;;;2.70;2.03;;;;;;;13.76;100.00;101721.81;5041421;28;20234;-72
2022/10/18 11:08:16;;;;;;;2.80;2.17;;;;;;;13.78;100.00;101713.00;5035463;28;20229;-72
2022/10/18 11:10:53;;;;;;;2.53;2.30;;;;;;;13.79;100.00;101699.03;5040983;28;20191;-73
2022/10/18 11:13:28;;;;;;;3.57;2.63;;;;;;;13.80;100.00;101692.88;5038755;28;20625;-71